地図

経路データ

SID SEASON NUMBER BASIN SUBBASIN NAME ISO_TIME NATURE LAT LON WMO_WIND WMO_PRES WMO_AGENCY TRACK_TYPE DIST2LAND LANDFALL IFLAG USA_AGENCY USA_ATCF_ID USA_LAT USA_LON USA_RECORD USA_STATUS USA_WIND USA_PRES USA_SSHS USA_R34_NE USA_R34_SE USA_R34_SW USA_R34_NW USA_R50_NE USA_R50_SE USA_R50_SW USA_R50_NW USA_R64_NE USA_R64_SE USA_R64_SW USA_R64_NW USA_POCI USA_ROCI USA_RMW USA_EYE TOKYO_LAT TOKYO_LON TOKYO_GRADE TOKYO_WIND TOKYO_PRES TOKYO_R50_DIR TOKYO_R50_LONG TOKYO_R50_SHORT TOKYO_R30_DIR TOKYO_R30_LONG TOKYO_R30_SHORT TOKYO_LAND CMA_LAT CMA_LON CMA_CAT CMA_WIND CMA_PRES HKO_LAT HKO_LON HKO_CAT HKO_WIND HKO_PRES NEWDELHI_LAT NEWDELHI_LON NEWDELHI_GRADE NEWDELHI_WIND NEWDELHI_PRES NEWDELHI_CI NEWDELHI_DP NEWDELHI_POCI REUNION_LAT REUNION_LON REUNION_TYPE REUNION_WIND REUNION_PRES REUNION_TNUM REUNION_CI REUNION_RMW REUNION_R34_NE REUNION_R34_SE REUNION_R34_SW REUNION_R34_NW REUNION_R50_NE REUNION_R50_SE REUNION_R50_SW REUNION_R50_NW REUNION_R64_NE REUNION_R64_SE REUNION_R64_SW REUNION_R64_NW BOM_LAT BOM_LON BOM_TYPE BOM_WIND BOM_PRES BOM_TNUM BOM_CI BOM_RMW BOM_R34_NE BOM_R34_SE BOM_R34_SW BOM_R34_NW BOM_R50_NE BOM_R50_SE BOM_R50_SW BOM_R50_NW BOM_R64_NE BOM_R64_SE BOM_R64_SW BOM_R64_NW BOM_ROCI BOM_POCI BOM_EYE BOM_POS_METHOD BOM_PRES_METHOD NADI_LAT NADI_LON NADI_CAT NADI_WIND NADI_PRES WELLINGTON_LAT WELLINGTON_LON WELLINGTON_WIND WELLINGTON_PRES DS824_LAT DS824_LON DS824_STAGE DS824_WIND DS824_PRES TD9636_LAT TD9636_LON TD9636_STAGE TD9636_WIND TD9636_PRES TD9635_LAT TD9635_LON TD9635_WIND TD9635_PRES TD9635_ROCI NEUMANN_LAT NEUMANN_LON NEUMANN_CLASS NEUMANN_WIND NEUMANN_PRES MLC_LAT MLC_LON MLC_CLASS MLC_WIND MLC_PRES USA_GUST BOM_GUST BOM_GUST_PER REUNION_GUST REUNION_GUST_PER USA_SEAHGT USA_SEARAD_NE USA_SEARAD_SE USA_SEARAD_SW USA_SEARAD_NW STORM_SPEED STORM_DIR
1927192N15136 1927 29 WP MM NOT_NAMED 1927-07-11 10:00:00 NR 14.5000 135.500 main 1112 1094 __________O___ -1 14.5000 135.500 7 5 298
1927192N15136 1927 29 WP MM NOT_NAMED 1927-07-11 12:00:00 NR 14.5835 135.339 main 1094 1075 __________P___ -1 14.5835 135.339 7 5 298
1927192N15136 1927 29 WP MM NOT_NAMED 1927-07-11 15:00:00 NR 14.7086 135.095 main 1075 1047 __________P___ -1 14.7086 135.095 7 5 298
1927192N15136 1927 29 WP MM NOT_NAMED 1927-07-11 18:00:00 NR 14.8335 134.846 main 1047 1029 __________P___ -1 14.8335 134.846 7 6 297
1927192N15136 1927 29 WP MM NOT_NAMED 1927-07-11 21:00:00 NR 14.9584 134.588 main 1032 1022 __________P___ -1 14.9584 134.588 7 6 296
1927192N15136 1927 29 WP MM NOT_NAMED 1927-07-11 22:00:00 NR 15.0000 134.500 main 1022 1005 __________O___ -1 15.0000 134.500 7 6 296
1927192N15136 1927 29 WP MM NOT_NAMED 1927-07-12 00:00:00 NR 15.0832 134.319 main 1005 978 __________P___ -1 15.0832 134.319 7 6 295
1927192N15136 1927 29 WP MM NOT_NAMED 1927-07-12 03:00:00 NR 15.2081 134.036 main 978 951 __________P___ -1 15.2081 134.036 7 6 294
1927192N15136 1927 29 WP MM NOT_NAMED 1927-07-12 06:00:00 NR 15.3331 133.734 main 951 925 __________P___ -1 15.3331 133.734 7 7 293
1927192N15136 1927 29 WP MM NOT_NAMED 1927-07-12 09:00:00 NR 15.4582 133.412 main 929 919 __________P___ -1 15.4582 133.412 7 7 292
1927192N15136 1927 29 WP MM NOT_NAMED 1927-07-12 10:00:00 NR 15.5000 133.300 main 919 904 __________O___ -1 15.5000 133.300 7 7 291
1927192N15136 1927 29 WP MM NOT_NAMED 1927-07-12 12:00:00 NR 15.5860 133.059 main 904 870 __________P___ -1 15.5860 133.059 7 8 290
1927192N15136 1927 29 WP MM NOT_NAMED 1927-07-12 15:00:00 NR 15.7151 132.679 main 870 837 __________P___ -1 15.7151 132.679 7 8 289
1927192N15136 1927 29 WP MM NOT_NAMED 1927-07-12 18:00:00 NR 15.8414 132.293 main 837 810 __________P___ -1 15.8414 132.293 7 8 289
1927192N15136 1927 29 WP MM NOT_NAMED 1927-07-12 21:00:00 NR 15.9617 131.919 main 810 801 __________P___ -1 15.9617 131.919 7 8 289
1927192N15136 1927 29 WP MM NOT_NAMED 1927-07-12 22:00:00 NR 16.0000 131.800 main 801 789 __________O___ -1 16.0000 131.800 7 7 289
1927192N15136 1927 29 WP MM NOT_NAMED 1927-07-13 00:00:00 NR 16.0748 131.580 main 789 769 __________P___ -1 16.0748 131.580 7 7 290
1927192N15136 1927 29 WP MM NOT_NAMED 1927-07-13 03:00:00 NR 16.1809 131.269 main 769 749 __________P___ -1 16.1809 131.269 7 6 289
1927192N15136 1927 29 WP MM NOT_NAMED 1927-07-13 06:00:00 NR 16.2797 130.976 main 749 731 __________P___ -1 16.2797 130.976 7 6 289
1927192N15136 1927 29 WP MM NOT_NAMED 1927-07-13 09:00:00 NR 16.3712 130.693 main 731 722 __________P___ -1 16.3712 130.693 7 6 288
1927192N15136 1927 29 WP MM NOT_NAMED 1927-07-13 10:00:00 NR 16.4000 130.600 main 722 702 __________O___ -1 16.4000 130.600 7 6 287
1927192N15136 1927 29 WP MM NOT_NAMED 1927-07-13 12:00:00 NR 16.4530 130.411 main 706 677 __________P___ -1 16.4530 130.411 7 6 286
1927192N15136 1927 29 WP MM NOT_NAMED 1927-07-13 15:00:00 NR 16.5261 130.133 main 677 663 __________P___ -1 16.5261 130.133 7 5 285
1927192N15136 1927 29 WP MM NOT_NAMED 1927-07-13 18:00:00 NR 16.5974 129.861 main 663 639 __________P___ -1 16.5974 129.861 7 5 286
1927192N15136 1927 29 WP MM NOT_NAMED 1927-07-13 21:00:00 NR 16.6728 129.590 main 639 630 __________P___ -1 16.6728 129.590 7 5 287
1927192N15136 1927 29 WP MM NOT_NAMED 1927-07-13 22:00:00 NR 16.7000 129.500 main 630 617 __________O___ -1 16.7000 129.500 7 5 290
1927192N15136 1927 29 WP MM NOT_NAMED 1927-07-14 00:00:00 NR 16.7634 129.325 main 617 599 __________P___ -1 16.7634 129.325 7 5 291
1927192N15136 1927 29 WP MM NOT_NAMED 1927-07-14 03:00:00 NR 16.8650 129.061 main 605 585 __________P___ -1 16.8650 129.061 7 6 292
1927192N15136 1927 29 WP MM NOT_NAMED 1927-07-14 06:00:00 NR 16.9688 128.790 main 585 566 __________P___ -1 16.9688 128.790 7 6 291
1927192N15136 1927 29 WP MM NOT_NAMED 1927-07-14 09:00:00 NR 17.0687 128.502 main 566 558 __________P___ -1 17.0687 128.502 7 6 289
1927192N15136 1927 29 WP MM NOT_NAMED 1927-07-14 10:00:00 NR 17.1000 128.400 main 558 542 __________O___ -1 17.1000 128.400 7 6 286
1927192N15136 1927 29 WP MM NOT_NAMED 1927-07-14 12:00:00 NR 17.1583 128.184 main 549 518 __________P___ -1 17.1583 128.184 7 7 285
1927192N15136 1927 29 WP MM NOT_NAMED 1927-07-14 15:00:00 NR 17.2396 127.841 main 518 503 __________P___ -1 17.2396 127.841 7 7 283
1927192N15136 1927 29 WP MM NOT_NAMED 1927-07-14 18:00:00 NR 17.3133 127.483 main 503 484 __________P___ -1 17.3133 127.483 7 7 281
1927192N15136 1927 29 WP MM NOT_NAMED 1927-07-14 21:00:00 NR 17.3796 127.120 main 484 477 __________P___ -1 17.3796 127.120 7 7 281
1927192N15136 1927 29 WP MM NOT_NAMED 1927-07-14 22:00:00 NR 17.4000 127.000 main 477 459 __________O___ -1 17.4000 127.000 7 7 279
1927192N15136 1927 29 WP MM NOT_NAMED 1927-07-15 00:00:00 NR 17.4364 126.759 main 459 418 __________P___ -1 17.4364 126.759 7 7 278
1927192N15136 1927 29 WP MM NOT_NAMED 1927-07-15 03:00:00 NR 17.4846 126.397 main 418 375 __________P___ -1 17.4846 126.397 7 7 278
1927192N15136 1927 29 WP MM NOT_NAMED 1927-07-15 06:00:00 NR 17.5308 126.043 main 375 346 __________P___ -1 17.5308 126.043 7 7 278
1927192N15136 1927 29 WP MM NOT_NAMED 1927-07-15 09:00:00 NR 17.5812 125.707 main 346 335 __________P___ -1 17.5812 125.707 7 6 279
1927192N15136 1927 29 WP MM NOT_NAMED 1927-07-15 10:00:00 NR 17.6000 125.600 main 335 315 __________O___ -1 17.6000 125.600 7 6 278
1927192N15136 1927 29 WP MM NOT_NAMED 1927-07-15 12:00:00 NR 17.6231 125.399 main 315 286 __________P___ -1 17.6231 125.399 7 6 278
1927192N15136 1927 29 WP MM NOT_NAMED 1927-07-15 15:00:00 NR 17.6638 125.117 main 286 256 __________P___ -1 17.6638 125.117 7 5 282
1927192N15136 1927 29 WP MM NOT_NAMED 1927-07-15 18:00:00 NR 17.7311 124.850 main 256 239 __________P___ -1 17.7311 124.850 7 5 290
1927192N15136 1927 29 WP MM NOT_NAMED 1927-07-15 21:00:00 NR 17.8469 124.588 main 239 232 __________P___ -1 17.8469 124.588 7 6 297
1927192N15136 1927 29 WP MM NOT_NAMED 1927-07-15 22:00:00 NR 17.9000 124.500 main 232 214 __________O___ -1 17.9000 124.500 3 7 305
1927192N15136 1927 29 WP MM NOT_NAMED 1927-07-16 00:00:00 NR 18.0350 124.309 main 214 179 __________P___ -1 18.0350 124.309 3 7 311
1927192N15136 1927 29 WP MM NOT_NAMED 1927-07-16 03:00:00 NR 18.2880 124.022 main 179 149 __________P___ -1 18.2880 124.022 3 8 316
1927192N15136 1927 29 WP MM NOT_NAMED 1927-07-16 06:00:00 NR 18.5820 123.743 main 149 134 __________P___ -1 18.5820 123.743 3 8 320
1927192N15136 1927 29 WP MM NOT_NAMED 1927-07-16 09:00:00 NR 18.8951 123.482 main 138 128 __________P___ -1 18.8951 123.482 3 8 322
1927192N15136 1927 29 WP MM NOT_NAMED 1927-07-16 10:00:00 NR 19.0000 123.400 main 133 131 __________O___ -1 19.0000 123.400 4 7 323
1927192N15136 1927 29 WP MM NOT_NAMED 1927-07-16 12:00:00 NR 19.1731 123.259 main 138 130 __________P___ -1 19.1731 123.259 4 7 324
1927192N15136 1927 29 WP MM NOT_NAMED 1927-07-16 15:00:00 NR 19.4387 123.068 main 139 143 __________P___ -1 19.4387 123.068 4 7 327
1927192N15136 1927 29 WP MM NOT_NAMED 1927-07-16 18:00:00 NR 19.7310 122.881 main 158 158 __________P___ -1 19.7310 122.881 4 7 330
1927192N15136 1927 29 WP MM NOT_NAMED 1927-07-16 21:00:00 NR 20.0718 122.676 main 194 192 __________P___ -1 20.0718 122.676 4 8 331
1927192N15136 1927 29 WP MM NOT_NAMED 1927-07-16 22:00:00 NR 20.2000 122.600 main 203 203 __________O___ -1 20.2000 122.600 4 9 334
1927192N15136 1927 29 WP MM NOT_NAMED 1927-07-17 00:00:00 NR 20.4897 122.461 main 228 167 __________P___ -1 20.4897 122.461 4 10 336
1927192N15136 1927 29 WP MM NOT_NAMED 1927-07-17 03:00:00 NR 20.9748 122.229 main 167 112 __________P___ -1 20.9748 122.229 4 11 334
1927192N15136 1927 29 WP MM NOT_NAMED 1927-07-17 06:00:00 NR 21.4962 121.938 main 112 72 __________P___ -1 21.4962 121.938 4 12 329
1927192N15136 1927 29 WP MM NOT_NAMED 1927-07-17 09:00:00 NR 22.0262 121.554 main 72 51 __________P___ -1 22.0262 121.554 4 13 325
1927192N15136 1927 29 WP MM NOT_NAMED 1927-07-17 10:00:00 NR 22.2000 121.400 main 51 15 __________O___ -1 22.2000 121.400 4 14 319
1927192N15136 1927 29 WP MM NOT_NAMED 1927-07-17 12:00:00 NR 22.5427 121.073 main 15 0 __________P___ -1 22.5427 121.073 4 14 315
1927192N15136 1927 29 WP MM NOT_NAMED 1927-07-17 15:00:00 NR 23.0507 120.487 main 0 0 __________P___ -1 23.0507 120.487 4 15 310
1927192N15136 1927 29 WP MM NOT_NAMED 1927-07-17 18:00:00 NR 23.5331 119.792 main 32 30 __________P___ -1 23.5331 119.792 4 17 304
1927192N15136 1927 29 WP MM NOT_NAMED 1927-07-17 21:00:00 NR 23.9688 118.990 main 69 45 __________P___ -1 23.9688 118.990 4 17 300
1927192N15136 1927 29 WP MM NOT_NAMED 1927-07-17 22:00:00 NR 24.1000 118.700 main 45 10 __________O___ -1 24.1000 118.700 2 18 296
1927192N15136 1927 29 WP MM NOT_NAMED 1927-07-18 00:00:00 NR 24.3550 118.112 main 11 0 __________P___ -1 24.3550 118.112 2 18 292
1927192N15136 1927 29 WP MM NOT_NAMED 1927-07-18 03:00:00 NR 24.6873 117.143 main 0 0 __________P___ -1 24.6873 117.143 2 19 288
1927192N15136 1927 29 WP MM NOT_NAMED 1927-07-18 06:00:00 NR 24.9545 116.091 main 0 0 __________P___ -1 24.9545 116.091 2 20 283
1927192N15136 1927 29 WP MM NOT_NAMED 1927-07-18 09:00:00 NR 25.1510 114.979 main 0 0 __________P___ -1 25.1510 114.979 2 21 280
1927192N15136 1927 29 WP MM NOT_NAMED 1927-07-18 10:00:00 NR 25.2000 114.600 main 0 0 __________O___ -1 25.2000 114.600 2 21 277
1927192N15136 1927 29 WP MM NOT_NAMED 1927-07-18 12:00:00 NR 25.2733 113.833 main 0 0 __________P___ -1 25.2733 113.833 2 21 274
1927192N15136 1927 29 WP MM NOT_NAMED 1927-07-18 15:00:00 NR 25.3299 112.666 main 0 0 __________P___ -1 25.3299 112.666 2 21 272
1927192N15136 1927 29 WP MM NOT_NAMED 1927-07-18 18:00:00 NR 25.3373 111.485 main 0 0 __________P___ -1 25.3373 111.485 2 21 270
1927192N15136 1927 29 WP MM NOT_NAMED 1927-07-18 21:00:00 NR 25.3125 110.297 main 0 0 __________P___ -1 25.3125 110.297 2 21 269
1927192N15136 1927 29 WP MM NOT_NAMED 1927-07-18 22:00:00 NR 25.3000 109.900 main 0 __________O___ -1 25.3000 109.900 7 22 268

デジタル台風データ・検索

IBTrACS Databaseについて

本データベースは、米国NOAAが公開する1842年以降の世界の熱帯低気圧のベストトラックデータアーカイブInternational Best Track Archive for Climate Stewardship (IBTrACS)を、ウェブで閲覧しやすい形式に変換したものです。

最終更新日:2021-12-03